Time;durP1;ratioP1;P1;durP2;ratioP2;P2;SDS_P1;SDS_P2;PMS_P1;PMS_P2;Temp;Humidity;BMP_temperature;BMP_pressure;BME280_temperature;BME280_humidity;BME280_pressure;Samples;Min_cycle;Max_cycle;Signal;HPM_P1;HPM_P2
2022/02/12 00:00:51;;;;;;;15.67;6.90;;;1.70;99.90;;;;;;4424261;32;20245;-67
2022/02/12 00:03:18;;;;;;;12.13;6.40;;;1.70;99.90;;;;;;4424307;32;20194;-67
2022/02/12 00:05:45;;;;;;;13.73;6.67;;;1.70;99.90;;;;;;4424197;32;20190;-67
2022/02/12 00:08:12;;;;;;;13.07;6.03;;;1.70;99.90;;;;;;4423727;32;20246;-67
2022/02/12 00:10:39;;;;;;;15.03;5.93;;;1.70;99.90;;;;;;4423708;32;20190;-67
2022/02/12 00:13:11;;;;;;;10.50;6.30;;;1.60;99.90;;;;;;4424329;32;20201;-67
2022/02/12 00:15:42;;;;;;;9.80;6.03;;;1.60;99.90;;;;;;4424298;32;20204;-67
2022/02/12 00:18:09;;;;;;;11.63;6.17;;;1.60;99.90;;;;;;4425399;32;20207;-67
2022/02/12 00:20:37;;;;;;;10.97;5.87;;;1.60;99.90;;;;;;4423613;32;20214;-67
2022/02/12 00:23:05;;;;;;;11.00;6.10;;;1.60;99.90;;;;;;4424517;32;20230;-67
2022/02/12 00:25:32;;;;;;;11.17;6.07;;;1.60;99.90;;;;;;4425143;32;20151;-67
2022/02/12 00:28:00;;;;;;;12.10;6.10;;;1.60;99.90;;;;;;4424793;32;20179;-68
2022/02/12 00:30:28;;;;;;;11.63;5.57;;;1.60;99.90;;;;;;4424280;32;20202;-67
2022/02/12 00:32:56;;;;;;;12.33;6.13;;;1.60;99.90;;;;;;4424509;32;20142;-67
2022/02/12 00:35:23;;;;;;;10.57;5.80;;;1.60;99.90;;;;;;4423314;32;20213;-67
2022/02/12 00:37:51;;;;;;;12.27;6.03;;;1.60;99.90;;;;;;4424550;32;20440;-67
2022/02/12 00:40:20;;;;;;;11.47;5.20;;;1.60;99.90;;;;;;4423874;32;20236;-68
2022/02/12 00:42:47;;;;;;;8.20;4.87;;;1.50;99.90;;;;;;4423575;32;20248;-67
2022/02/12 00:45:14;;;;;;;8.00;3.87;;;1.50;99.90;;;;;;4424078;32;20193;-67
2022/02/12 00:47:41;;;;;;;6.07;3.57;;;1.50;99.90;;;;;;4423794;32;20209;-68
2022/02/12 00:50:09;;;;;;;5.70;3.07;;;1.40;99.90;;;;;;4423712;32;20509;-67
2022/02/12 00:52:36;;;;;;;5.93;3.27;;;1.40;99.90;;;;;;4422852;32;20512;-68
2022/02/12 00:55:03;;;;;;;5.73;3.03;;;1.30;99.90;;;;;;4424564;32;20394;-68
2022/02/12 00:57:31;;;;;;;4.90;2.90;;;1.30;99.90;;;;;;4423826;32;20202;-67
2022/02/12 00:59:58;;;;;;;3.50;2.30;;;1.20;99.90;;;;;;4423582;32;20238;-68
2022/02/12 01:02:26;;;;;;;4.33;2.50;;;1.20;99.90;;;;;;4424598;32;20194;-68
2022/02/12 01:04:53;;;;;;;4.33;2.27;;;1.10;99.90;;;;;;4422825;32;20183;-68
2022/02/12 01:07:20;;;;;;;3.80;2.57;;;1.00;99.90;;;;;;4426113;32;20169;-69
2022/02/12 01:09:47;;;;;;;3.63;2.50;;;1.00;99.90;;;;;;4424725;32;20165;-68
2022/02/12 01:12:15;;;;;;;5.00;2.60;;;1.00;99.90;;;;;;4422948;32;20219;-68
2022/02/12 01:14:42;;;;;;;3.63;2.40;;;1.00;99.90;;;;;;4422945;32;20228;-68
2022/02/12 01:17:10;;;;;;;6.07;3.00;;;1.00;99.90;;;;;;4423095;32;20214;-68
2022/02/12 01:19:38;;;;;;;4.70;2.70;;;1.00;99.90;;;;;;4422962;32;20621;-68
2022/02/12 01:22:05;;;;;;;6.13;3.13;;;1.00;99.90;;;;;;4423539;32;20170;-68
2022/02/12 01:24:34;;;;;;;5.23;2.90;;;0.90;99.90;;;;;;4423111;32;20170;-68
2022/02/12 01:27:02;;;;;;;5.67;3.10;;;1.00;99.90;;;;;;4422965;32;20178;-67
2022/02/12 01:29:29;;;;;;;5.30;3.20;;;1.00;99.90;;;;;;4423710;32;20167;-67
2022/02/12 01:32:03;;;;;;;5.70;3.30;;;0.90;99.90;;;;;;4424739;32;20536;-67
2022/02/12 01:34:34;;;;;;;4.50;3.20;;;0.90;99.90;;;;;;4422636;32;20495;-67
2022/02/12 01:37:07;;;;;;;5.23;3.17;;;0.90;99.90;;;;;;4423590;32;20239;-67
2022/02/12 01:39:34;;;;;;;7.03;3.20;;;0.90;99.90;;;;;;4422586;32;20411;-67
2022/02/12 01:42:02;;;;;;;6.10;3.33;;;0.90;99.90;;;;;;4424068;32;20166;-67
2022/02/12 01:44:33;;;;;;;5.57;2.73;;;0.90;99.90;;;;;;4423124;32;20396;-67
2022/02/12 01:47:01;;;;;;;5.50;2.80;;;0.90;99.90;;;;;;4422870;32;20197;-67
2022/02/12 01:49:29;;;;;;;4.23;2.90;;;0.90;99.90;;;;;;4423389;32;20478;-67
2022/02/12 01:51:58;;;;;;;4.80;2.67;;;0.90;99.90;;;;;;4424406;32;20427;-67
2022/02/12 01:54:26;;;;;;;4.60;2.40;;;0.80;99.90;;;;;;4423648;32;20186;-67
2022/02/12 01:56:53;;;;;;;5.00;2.47;;;0.90;99.90;;;;;;4423985;32;20172;-67
2022/02/12 01:59:24;;;;;;;6.53;2.60;;;0.80;99.90;;;;;;4422854;32;20603;-67
2022/02/12 02:01:51;;;;;;;3.60;2.30;;;0.80;99.90;;;;;;4423921;32;20162;-67
2022/02/12 02:04:20;;;;;;;3.17;2.20;;;0.80;99.90;;;;;;4425239;32;20221;-67
2022/02/12 02:06:47;;;;;;;5.53;2.50;;;0.80;99.90;;;;;;4425939;32;20186;-67
2022/02/12 02:09:16;;;;;;;4.77;2.40;;;0.70;99.90;;;;;;4425676;32;20415;-67
2022/02/12 02:11:43;;;;;;;4.97;2.20;;;0.70;99.90;;;;;;4425439;32;20177;-67
2022/02/12 02:14:11;;;;;;;5.47;2.40;;;0.70;99.90;;;;;;4426519;32;20517;-67
2022/02/12 02:16:40;;;;;;;4.20;2.13;;;0.70;99.90;;;;;;4425781;32;20190;-67
2022/02/12 02:19:09;;;;;;;5.10;2.40;;;0.70;99.90;;;;;;4425258;32;20481;-67
2022/02/12 02:21:40;;;;;;;3.77;1.90;;;0.70;99.90;;;;;;4425584;32;20208;-67
2022/02/12 02:24:07;;;;;;;4.10;2.00;;;0.60;99.90;;;;;;4426805;32;20472;-67
2022/02/12 02:26:36;;;;;;;5.37;2.20;;;0.60;99.90;;;;;;4426913;32;20224;-67
2022/02/12 02:29:03;;;;;;;4.60;2.27;;;0.60;99.90;;;;;;4426887;32;20186;-67
2022/02/12 02:31:33;;;;;;;5.23;2.30;;;0.60;99.90;;;;;;4425380;32;20223;-67
2022/02/12 02:34:11;;;;;;;7.17;2.40;;;0.60;99.90;;;;;;4425322;32;20175;-67
2022/02/12 02:36:41;;;;;;;3.43;2.10;;;0.50;99.90;;;;;;4426251;32;20252;-68
2022/02/12 02:39:09;;;;;;;5.30;2.40;;;0.60;99.90;;;;;;4425831;32;20520;-67
2022/02/12 02:41:36;;;;;;;4.40;2.10;;;0.60;99.90;;;;;;4425518;32;20275;-68
2022/02/12 02:44:03;;;;;;;4.10;2.10;;;0.60;99.90;;;;;;4425733;32;20175;-68
2022/02/12 02:46:30;;;;;;;4.37;2.20;;;0.60;99.90;;;;;;4425293;32;20192;-68
2022/02/12 02:48:57;;;;;;;4.07;2.30;;;0.60;99.90;;;;;;4426296;32;20611;-68
2022/02/12 02:56:56;;;;;;;3.37;2.00;;;0.60;99.90;;;;;;4425259;32;20171;-67
2022/02/12 02:59:23;;;;;;;3.63;2.20;;;0.60;99.90;;;;;;4426426;32;20174;-68
2022/02/12 03:01:53;;;;;;;3.63;2.27;;;0.70;99.90;;;;;;4426334;32;20162;-68
2022/02/12 03:04:21;;;;;;;4.40;2.30;;;0.70;99.90;;;;;;4426213;32;20228;-67
2022/02/12 03:06:49;;;;;;;6.20;2.47;;;0.60;99.90;;;;;;4425508;32;20501;-68
2022/02/12 03:09:16;;;;;;;7.10;2.30;;;0.60;99.90;;;;;;4426813;32;20475;-68
2022/02/12 03:11:43;;;;;;;5.27;2.33;;;0.60;99.90;;;;;;4425736;32;20189;-68
2022/02/12 03:14:10;;;;;;;4.13;2.20;;;0.50;99.90;;;;;;4426683;32;20170;-68
2022/02/12 03:16:38;;;;;;;6.77;2.70;;;0.50;99.90;;;;;;4425244;32;20170;-68
2022/02/12 03:19:05;;;;;;;4.70;2.30;;;0.50;99.90;;;;;;4424679;32;20197;-68
2022/02/12 03:21:32;;;;;;;4.93;2.60;;;0.40;99.90;;;;;;4426468;32;20166;-68
2022/02/12 03:24:00;;;;;;;6.90;2.70;;;0.40;99.90;;;;;;4424197;32;20527;-68
2022/02/12 03:26:27;;;;;;;4.83;2.40;;;0.30;99.90;;;;;;4425143;32;20209;-68
2022/02/12 03:28:55;;;;;;;4.33;2.77;;;0.30;99.90;;;;;;4426115;32;20558;-68
2022/02/12 03:31:22;;;;;;;4.63;2.60;;;0.30;99.90;;;;;;4424512;32;20185;-67
2022/02/12 03:33:49;;;;;;;5.47;2.93;;;0.30;99.90;;;;;;4424428;32;20531;-68
2022/02/12 03:36:16;;;;;;;3.83;2.73;;;0.30;99.90;;;;;;4425673;32;20395;-68
2022/02/12 03:38:47;;;;;;;4.53;2.87;;;0.20;99.90;;;;;;4425481;32;20201;-68
2022/02/12 03:41:15;;;;;;;5.60;3.07;;;0.20;99.90;;;;;;4424931;32;20197;-68
2022/02/12 03:43:42;;;;;;;4.20;2.70;;;0.10;99.90;;;;;;4424620;32;20578;-68
2022/02/12 03:46:09;;;;;;;5.67;3.50;;;0.10;99.90;;;;;;4424309;32;20197;-67
2022/02/12 03:48:37;;;;;;;7.53;3.23;;;0.10;99.90;;;;;;4426839;32;20206;-68
2022/02/12 03:51:04;;;;;;;6.87;3.03;;;0.00;99.90;;;;;;4424352;32;20509;-68
2022/02/12 03:53:31;;;;;;;7.37;3.57;;;0.00;99.90;;;;;;4425950;32;20547;-68
2022/02/12 03:55:58;;;;;;;7.17;3.37;;;0.00;99.90;;;;;;4425141;32;20221;-68
2022/02/12 03:58:25;;;;;;;7.03;3.60;;;-0.10;99.90;;;;;;4424039;32;20163;-68
2022/02/12 04:00:52;;;;;;;4.50;2.83;;;-0.10;99.90;;;;;;4424845;32;20204;-68
2022/02/12 04:03:20;;;;;;;5.27;2.80;;;-0.10;99.90;;;;;;4423610;32;20182;-68
2022/02/12 04:05:48;;;;;;;5.93;3.10;;;-0.10;99.90;;;;;;4424893;32;20221;-68
2022/02/12 04:08:18;;;;;;;4.67;3.00;;;-0.20;99.90;;;;;;4424241;32;20174;-68
2022/02/12 04:10:48;;;;;;;7.57;3.40;;;-0.20;99.90;;;;;;4424104;32;20197;-68
2022/02/12 04:13:19;;;;;;;6.90;3.47;;;-0.20;99.90;;;;;;4425946;32;20171;-68
2022/02/12 04:15:46;;;;;;;6.30;2.77;;;-0.30;99.90;;;;;;4423512;32;20222;-68
2022/02/12 04:18:15;;;;;;;5.60;2.90;;;-0.20;99.90;;;;;;4423453;32;20193;-67
2022/02/12 04:20:42;;;;;;;3.77;2.83;;;-0.20;99.90;;;;;;4423754;32;20257;-68
2022/02/12 04:23:10;;;;;;;4.97;2.70;;;-0.20;99.90;;;;;;4423967;32;20189;-68
2022/02/12 04:25:37;;;;;;;6.17;2.73;;;-0.30;99.90;;;;;;4423910;32;20200;-67
2022/02/12 04:28:05;;;;;;;6.03;2.70;;;-0.30;99.90;;;;;;4424318;32;20176;-68
2022/02/12 04:30:35;;;;;;;7.70;2.90;;;-0.30;99.90;;;;;;4423122;32;20536;-68
2022/02/12 04:33:04;;;;;;;6.63;2.60;;;-0.30;99.90;;;;;;4423774;32;20167;-68
2022/02/12 04:35:31;;;;;;;7.43;2.70;;;-0.40;99.90;;;;;;4423721;32;20245;-68
2022/02/12 04:37:57;;;;;;;4.60;2.70;;;-0.40;99.90;;;;;;4423159;32;20186;-68
2022/02/12 04:40:24;;;;;;;5.43;3.00;;;-0.40;99.90;;;;;;4423561;32;20174;-68
2022/02/12 04:42:51;;;;;;;3.60;2.30;;;-0.40;99.90;;;;;;4423374;32;20173;-68
2022/02/12 04:45:18;;;;;;;4.83;2.60;;;-0.50;99.90;;;;;;4425631;32;20182;-68
2022/02/12 04:47:45;;;;;;;6.90;2.80;;;-0.50;99.90;;;;;;4426191;32;20143;-68
2022/02/12 04:50:12;;;;;;;4.70;2.30;;;-0.50;99.90;;;;;;4423536;32;20199;-68
2022/02/12 04:52:39;;;;;;;5.57;2.50;;;-0.50;99.90;;;;;;4424802;32;20583;-68
2022/02/12 04:55:07;;;;;;;4.57;2.50;;;-0.50;99.90;;;;;;4422930;32;20584;-68
2022/02/12 04:57:34;;;;;;;5.23;2.53;;;-0.60;99.90;;;;;;4424538;32;20193;-68
2022/02/12 05:00:03;;;;;;;4.50;2.40;;;-0.60;99.90;;;;;;4423758;32;20297;-68
2022/02/12 05:02:30;;;;;;;6.37;2.50;;;-0.60;99.90;;;;;;4422848;32;20166;-67
2022/02/12 05:04:57;;;;;;;6.53;2.50;;;-0.60;99.90;;;;;;4423797;32;20174;-68
2022/02/12 05:07:24;;;;;;;4.20;2.23;;;-0.50;99.90;;;;;;4424567;32;20181;-67
2022/02/12 05:09:51;;;;;;;4.37;2.20;;;-0.50;99.90;;;;;;4424606;32;20163;-68
2022/02/12 05:12:18;;;;;;;4.17;2.30;;;-0.50;99.90;;;;;;4422673;32;20190;-67
2022/02/12 05:14:45;;;;;;;7.53;2.43;;;-0.50;99.90;;;;;;4424539;32;20236;-68
2022/02/12 05:17:12;;;;;;;6.33;2.30;;;-0.50;99.90;;;;;;4424191;32;20168;-68
2022/02/12 05:19:39;;;;;;;5.80;2.53;;;-0.50;99.90;;;;;;4423402;32;20188;-68
2022/02/12 05:22:07;;;;;;;5.17;2.40;;;-0.50;99.90;;;;;;4423707;32;20614;-67
2022/02/12 05:24:34;;;;;;;5.03;2.40;;;-0.50;99.90;;;;;;4422585;32;20173;-68
2022/02/12 05:27:01;;;;;;;4.13;2.33;;;-0.50;99.90;;;;;;4422534;32;20211;-68
2022/02/12 05:29:28;;;;;;;6.63;2.37;;;-0.50;99.90;;;;;;4423365;32;20198;-68
2022/02/12 05:31:55;;;;;;;5.07;2.63;;;-0.60;99.90;;;;;;4422395;32;20197;-68
2022/02/12 05:34:22;;;;;;;6.10;2.67;;;-0.60;99.90;;;;;;4423315;32;20193;-68
2022/02/12 05:36:49;;;;;;;6.63;2.57;;;-0.70;99.90;;;;;;4422893;32;20203;-68
2022/02/12 05:39:16;;;;;;;4.80;2.37;;;-0.70;99.90;;;;;;4424388;32;20420;-68
2022/02/12 05:41:43;;;;;;;4.70;2.43;;;-0.80;99.90;;;;;;4424240;32;20252;-68
2022/02/12 05:44:10;;;;;;;5.60;2.70;;;-0.90;99.90;;;;;;4424139;32;20170;-68
2022/02/12 05:46:38;;;;;;;6.20;2.53;;;-0.90;99.90;;;;;;4423436;32;20226;-67
2022/02/12 05:49:06;;;;;;;5.40;2.70;;;-0.90;99.90;;;;;;4424041;32;20166;-68
2022/02/12 05:51:34;;;;;;;10.30;2.73;;;-0.90;99.90;;;;;;4422674;32;20392;-67
2022/02/12 05:54:03;;;;;;;4.77;2.80;;;-0.90;99.90;;;;;;4422733;32;20174;-67
2022/02/12 05:56:31;;;;;;;6.70;2.60;;;-0.90;99.90;;;;;;4422887;32;20158;-68
2022/02/12 05:58:59;;;;;;;7.97;2.80;;;-0.90;99.90;;;;;;4423394;32;20166;-68
2022/02/12 06:01:26;;;;;;;7.63;2.50;;;-0.90;99.90;;;;;;4423889;32;20199;-68
2022/02/12 06:03:53;;;;;;;6.97;2.77;;;-0.90;99.90;;;;;;4422347;32;20514;-68
2022/02/12 06:06:20;;;;;;;6.80;2.50;;;-0.90;99.90;;;;;;4422998;32;20215;-68
2022/02/12 06:08:47;;;;;;;6.57;2.63;;;-0.80;99.90;;;;;;4423897;32;20204;-68
2022/02/12 06:11:14;;;;;;;5.70;2.53;;;-0.80;99.90;;;;;;4423904;32;20233;-68
2022/02/12 06:13:42;;;;;;;8.93;2.73;;;-0.90;99.90;;;;;;4422840;32;20177;-68
2022/02/12 06:16:09;;;;;;;6.70;2.57;;;-0.90;99.90;;;;;;4422929;32;20214;-69
2022/02/12 06:18:37;;;;;;;6.93;2.80;;;-0.80;99.90;;;;;;4424042;32;20189;-68
2022/02/12 06:21:06;;;;;;;6.20;2.83;;;-0.90;99.90;;;;;;4422681;32;20178;-68
2022/02/12 06:23:38;;;;;;;8.03;2.80;;;-0.90;99.90;;;;;;4422572;32;20231;-68
2022/02/12 06:26:06;;;;;;;4.77;2.37;;;-0.90;99.90;;;;;;4423334;32;20412;-68
2022/02/12 06:28:33;;;;;;;6.80;2.63;;;-0.90;99.90;;;;;;4423522;32;20186;-67
2022/02/12 06:31:01;;;;;;;4.10;2.23;;;-0.90;99.90;;;;;;4421995;32;20534;-68
2022/02/12 06:33:29;;;;;;;9.63;2.70;;;-0.80;99.90;;;;;;4424791;32;20195;-68
2022/02/12 06:35:58;;;;;;;6.27;2.67;;;-0.90;99.90;;;;;;4422308;32;20240;-68
2022/02/12 06:38:25;;;;;;;7.23;2.83;;;-0.80;99.90;;;;;;4424152;32;20143;-68
2022/02/12 06:40:52;;;;;;;6.80;2.50;;;-0.80;99.90;;;;;;4422633;32;20163;-68
2022/02/12 06:43:19;;;;;;;9.77;2.70;;;-0.80;99.90;;;;;;4422613;32;20206;-67
2022/02/12 06:45:46;;;;;;;6.20;2.57;;;-0.90;99.90;;;;;;4423962;32;20428;-68
2022/02/12 06:48:13;;;;;;;6.33;2.33;;;-0.80;99.90;;;;;;4425534;32;20143;-68
2022/02/12 06:50:42;;;;;;;5.57;2.27;;;-0.80;99.90;;;;;;4424731;32;20179;-67
2022/02/12 06:53:09;;;;;;;5.47;2.20;;;-0.80;99.90;;;;;;4424731;32;20227;-68
2022/02/12 06:55:36;;;;;;;7.43;2.60;;;-0.80;99.90;;;;;;4424767;32;20264;-68
2022/02/12 06:58:04;;;;;;;7.20;2.70;;;-0.70;99.90;;;;;;4425241;32;20174;-68
2022/02/12 07:00:31;;;;;;;7.20;2.33;;;-0.70;99.90;;;;;;4425869;32;20277;-68
2022/02/12 07:02:59;;;;;;;8.27;2.77;;;-0.70;99.90;;;;;;4425420;32;20555;-67
2022/02/12 07:05:26;;;;;;;4.57;2.50;;;-0.60;99.90;;;;;;4426570;32;20368;-68
2022/02/12 07:07:52;;;;;;;5.53;2.30;;;-0.60;99.90;;;;;;4425775;32;20458;-68
2022/02/12 07:10:21;;;;;;;3.87;2.33;;;-0.50;99.90;;;;;;4425798;32;20207;-68
2022/02/12 07:12:48;;;;;;;7.03;2.70;;;-0.60;99.90;;;;;;4426537;32;20252;-68
2022/02/12 07:15:15;;;;;;;7.17;2.70;;;-0.50;99.90;;;;;;4426204;32;20195;-68
2022/02/12 07:17:42;;;;;;;4.60;2.33;;;-0.50;99.90;;;;;;4429429;32;20201;-68
2022/02/12 07:20:12;;;;;;;7.17;2.60;;;-0.40;99.90;;;;;;4424800;32;20279;-68
2022/02/12 07:22:40;;;;;;;4.70;2.30;;;-0.40;99.90;;;;;;4425383;32;20188;-68
2022/02/12 07:25:14;;;;;;;4.60;2.27;;;-0.40;99.90;;;;;;4426206;32;20411;-69
2022/02/12 07:27:42;;;;;;;6.20;2.50;;;-0.40;99.90;;;;;;4425159;32;20197;-69
2022/02/12 07:30:15;;;;;;;5.50;2.50;;;-0.30;99.90;;;;;;4424833;32;20186;-68
2022/02/12 07:32:43;;;;;;;6.23;2.90;;;-0.20;99.90;;;;;;4424304;32;20411;-68
2022/02/12 07:35:12;;;;;;;7.47;3.07;;;-0.10;99.90;;;;;;4425703;32;20200;-68
2022/02/12 07:37:41;;;;;;;5.90;2.23;;;-0.10;99.90;;;;;;4424406;32;20498;-68
2022/02/12 07:40:08;;;;;;;6.43;2.50;;;-0.10;99.90;;;;;;4424503;32;20236;-70
2022/02/12 07:42:36;;;;;;;4.93;2.40;;;-0.10;99.90;;;;;;4425229;32;20155;-69
2022/02/12 07:45:04;;;;;;;8.03;2.60;;;-0.10;99.90;;;;;;4423838;32;20508;-68
2022/02/12 07:47:31;;;;;;;5.77;2.70;;;0.00;99.90;;;;;;4412244;32;20520;-68
2022/02/12 07:49:58;;;;;;;5.97;2.53;;;0.00;99.90;;;;;;4424582;32;20182;-68
2022/02/12 07:52:25;;;;;;;5.20;2.57;;;0.00;99.90;;;;;;4425958;32;20178;-68
2022/02/12 07:54:52;;;;;;;7.87;2.80;;;0.00;99.90;;;;;;4424906;32;20185;-68
2022/02/12 07:57:19;;;;;;;9.83;2.53;;;0.10;99.90;;;;;;4425135;32;20230;-68
2022/02/12 07:59:46;;;;;;;9.40;2.80;;;0.20;99.90;;;;;;4423449;32;20220;-69
2022/02/12 08:02:13;;;;;;;9.67;2.70;;;0.30;99.90;;;;;;4424688;32;20177;-68
2022/02/12 08:04:40;;;;;;;7.47;2.77;;;0.30;99.90;;;;;;4424352;32;20232;-69
2022/02/12 08:09:53;;;;;;;7.47;2.20;;;0.40;99.90;;;;;;4425416;32;20179;-68
2022/02/12 08:12:20;;;;;;;6.50;2.40;;;0.70;99.90;;;;;;4424610;32;20221;-68
2022/02/12 08:14:52;;;;;;;4.37;2.53;;;0.90;99.90;;;;;;4423473;32;20200;-68
2022/02/12 08:17:20;;;;;;;9.40;2.87;;;1.30;99.90;;;;;;4423657;32;20174;-69
2022/02/12 08:19:49;;;;;;;6.90;2.53;;;1.60;99.90;;;;;;4425861;32;20182;-69
2022/02/12 08:22:18;;;;;;;6.23;2.73;;;2.10;99.90;;;;;;4424626;32;20183;-69
2022/02/12 08:24:45;;;;;;;5.60;2.60;;;2.40;99.90;;;;;;4426495;32;20212;-69
2022/02/12 08:27:14;;;;;;;5.53;2.43;;;2.60;99.90;;;;;;4423925;32;20178;-69
2022/02/12 08:29:43;;;;;;;5.80;2.97;;;2.90;99.90;;;;;;4423670;32;20171;-69
2022/02/12 08:32:12;;;;;;;5.77;2.80;;;2.80;99.90;;;;;;4425023;32;20139;-68
2022/02/12 08:34:42;;;;;;;8.60;3.37;;;3.00;99.90;;;;;;4423556;32;20171;-69
2022/02/12 08:37:12;;;;;;;6.50;3.40;;;3.00;99.90;;;;;;4425852;32;20157;-69
2022/02/12 08:39:46;;;;;;;10.53;3.30;;;3.10;99.90;;;;;;4424698;32;20135;-68
2022/02/12 08:42:13;;;;;;;8.47;3.50;;;3.40;99.90;;;;;;4424368;32;20167;-69
2022/02/12 08:44:40;;;;;;;6.27;3.37;;;3.50;99.90;;;;;;4423147;32;20229;-69
2022/02/12 08:47:11;;;;;;;7.40;3.17;;;3.60;99.90;;;;;;4422793;32;20247;-69
2022/02/12 08:49:40;;;;;;;9.83;3.90;;;3.80;99.90;;;;;;4423222;32;20225;-69
2022/02/12 08:52:07;;;;;;;8.03;3.30;;;4.10;99.90;;;;;;4423283;32;20430;-69
2022/02/12 08:54:34;;;;;;;8.73;3.63;;;4.40;99.90;;;;;;4423960;32;20189;-69
2022/02/12 08:57:02;;;;;;;7.00;3.40;;;4.50;99.90;;;;;;4423115;32;20171;-69
2022/02/12 08:59:31;;;;;;;8.03;3.80;;;4.70;99.90;;;;;;4424139;32;20207;-69
2022/02/12 09:02:10;;;;;;;6.83;2.87;;;5.20;99.90;;;;;;4424348;32;20178;-69
2022/02/12 09:04:38;;;;;;;6.17;3.20;;;5.40;99.90;;;;;;4423401;32;20187;-68
2022/02/12 09:07:05;;;;;;;6.40;3.57;;;5.70;99.90;;;;;;4424294;32;20174;-68
2022/02/12 09:09:32;;;;;;;6.40;3.10;;;5.70;99.90;;;;;;4424530;32;20163;-68
2022/02/12 09:11:59;;;;;;;9.03;3.40;;;5.60;99.90;;;;;;4422066;32;20214;-68
2022/02/12 09:14:26;;;;;;;6.43;3.30;;;5.80;99.90;;;;;;4423119;32;20167;-68
2022/02/12 09:16:53;;;;;;;7.27;3.87;;;6.10;99.90;;;;;;4422814;32;20198;-69
2022/02/12 09:19:20;;;;;;;8.23;3.07;;;6.20;99.90;;;;;;4422590;32;20169;-69
2022/02/12 09:21:47;;;;;;;7.20;3.00;;;6.30;99.90;;;;;;4422422;32;20188;-69
2022/02/12 09:24:14;;;;;;;7.00;3.23;;;6.50;99.90;;;;;;4422736;32;20218;-69
2022/02/12 09:26:41;;;;;;;7.60;3.10;;;6.50;99.90;;;;;;4425140;32;20179;-68
2022/02/12 09:29:08;;;;;;;5.67;2.93;;;6.70;99.90;;;;;;4423420;32;20176;-69
2022/02/12 09:31:36;;;;;;;6.17;2.80;;;6.90;99.90;;;;;;4421932;32;20225;-68
2022/02/12 09:34:03;;;;;;;4.83;2.27;;;7.10;99.90;;;;;;4423741;32;20549;-68
2022/02/12 09:36:30;;;;;;;4.33;2.30;;;7.20;99.90;;;;;;4424745;32;20262;-68
2022/02/12 09:38:57;;;;;;;6.00;2.50;;;7.40;99.90;;;;;;4424553;32;20177;-68
2022/02/12 09:41:26;;;;;;;7.50;3.10;;;7.80;99.90;;;;;;4422847;32;20204;-68
2022/02/12 09:43:55;;;;;;;4.90;2.10;;;8.20;99.90;;;;;;4424356;32;20429;-68
2022/02/12 09:46:31;;;;;;;4.87;2.40;;;8.40;99.90;;;;;;4423207;32;20180;-68
2022/02/12 09:48:59;;;;;;;5.33;2.30;;;8.10;99.90;;;;;;4422734;32;20536;-67
2022/02/12 09:51:28;;;;;;;5.63;2.50;;;8.30;99.90;;;;;;4424591;32;20531;-67
2022/02/12 09:53:56;;;;;;;7.27;3.17;;;8.50;99.90;;;;;;4424269;32;20185;-67
2022/02/12 09:56:23;;;;;;;7.40;3.47;;;8.60;99.90;;;;;;4425409;32;20306;-67
2022/02/12 09:58:51;;;;;;;8.43;3.97;;;8.50;99.90;;;;;;4423432;32;20230;-67
2022/02/12 10:01:19;;;;;;;9.90;4.57;;;8.60;99.90;;;;;;4423000;32;20186;-67
2022/02/12 10:03:49;;;;;;;9.47;4.40;;;8.30;99.90;;;;;;4422206;32;20189;-67
2022/02/12 10:06:17;;;;;;;11.03;4.13;;;8.70;99.90;;;;;;4422712;32;20208;-67
2022/02/12 10:09:05;;;;;;;9.47;4.80;;;8.90;99.70;;;;;;4423191;32;20171;-68
2022/02/12 10:11:44;;;;;;;9.20;4.90;;;9.00;98.40;;;;;;4423481;32;20170;-67
2022/02/12 10:14:20;;;;;;;11.97;4.97;;;9.00;99.90;;;;;;4422525;32;20167;-67
2022/02/12 10:16:54;;;;;;;9.40;4.87;;;9.20;97.40;;;;;;4423831;32;20142;-68
2022/02/12 10:19:30;;;;;;;11.03;4.73;;;9.10;96.40;;;;;;4422700;32;20205;-68
2022/02/12 10:22:17;;;;;;;6.37;3.67;;;9.30;97.00;;;;;;4423470;32;20182;-68
2022/02/12 10:24:50;;;;;;;9.53;3.83;;;9.50;96.80;;;;;;4422353;32;20576;-68
2022/02/12 10:27:25;;;;;;;7.00;3.63;;;9.80;95.60;;;;;;4426715;32;20170;-68
2022/02/12 10:29:54;;;;;;;6.03;3.40;;;10.00;94.10;;;;;;4425260;32;20208;-67
2022/02/12 10:32:23;;;;;;;7.30;3.50;;;9.60;93.40;;;;;;4426782;32;20448;-67
2022/02/12 10:34:53;;;;;;;9.10;4.47;;;9.40;93.30;;;;;;4426447;32;20521;-67
2022/02/12 10:37:24;;;;;;;6.33;3.60;;;9.10;92.20;;;;;;4425739;32;20220;-68
2022/02/12 10:39:57;;;;;;;7.27;3.87;;;8.90;94.20;;;;;;4426891;32;20202;-69
2022/02/12 10:42:27;;;;;;;5.97;3.20;;;8.90;96.60;;;;;;4425666;32;20223;-70
2022/02/12 10:45:01;;;;;;;8.77;3.33;;;8.80;93.30;;;;;;4424741;32;20198;-69
2022/02/12 10:47:28;;;;;;;6.23;3.20;;;8.80;95.60;;;;;;4424923;32;20174;-69
2022/02/12 10:49:56;;;;;;;7.60;3.80;;;8.70;93.00;;;;;;4425574;32;20191;-69
2022/02/12 10:52:25;;;;;;;6.97;3.47;;;8.60;95.00;;;;;;4426837;32;20171;-69
2022/02/12 10:54:52;;;;;;;8.30;3.53;;;8.30;97.10;;;;;;4427970;32;20166;-69
2022/02/12 10:57:29;;;;;;;6.87;3.47;;;8.10;97.50;;;;;;4427588;32;20494;-69
2022/02/12 10:59:56;;;;;;;7.17;3.10;;;8.10;97.20;;;;;;4426199;32;20198;-69
2022/02/12 11:02:25;;;;;;;8.13;3.33;;;8.20;96.00;;;;;;4424775;32;20189;-69
2022/02/12 11:04:53;;;;;;;6.73;3.60;;;8.60;96.80;;;;;;4427336;32;20505;-69
2022/02/12 11:07:21;;;;;;;7.73;3.70;;;8.50;95.50;;;;;;4425909;32;20208;-69
2022/02/12 11:09:48;;;;;;;7.40;4.10;;;8.90;96.70;;;;;;4425306;32;20243;-70
2022/02/12 11:12:16;;;;;;;8.50;4.57;;;9.00;96.20;;;;;;4424916;32;20178;-69
2022/02/12 11:14:44;;;;;;;7.50;4.17;;;9.40;94.80;;;;;;4426228;32;20192;-69
2022/02/12 11:17:16;;;;;;;8.20;4.30;;;9.50;92.10;;;;;;4425079;32;20198;-69
2022/02/12 11:19:44;;;;;;;9.67;4.17;;;9.20;94.20;;;;;;4425551;32;20204;-69
2022/02/12 11:22:12;;;;;;;7.67;4.00;;;9.40;95.90;;;;;;4424893;32;20188;-69
2022/02/12 11:24:44;;;;;;;7.43;4.33;;;9.70;97.30;;;;;;4424359;32;20539;-70
2022/02/12 11:27:18;;;;;;;6.43;3.57;;;9.70;94.50;;;;;;4423861;32;20193;-69
2022/02/12 11:29:47;;;;;;;6.40;3.47;;;9.80;90.20;;;;;;4425852;32;20147;-69
2022/02/12 11:32:22;;;;;;;5.20;2.97;;;9.70;83.70;;;;;;4425635;32;20575;-70
2022/02/12 11:34:55;;;;;;;6.40;3.10;;;9.70;88.90;;;;;;4424895;32;20178;-68
2022/02/12 11:37:29;;;;;;;7.57;3.80;;;9.70;80.90;;;;;;4425657;32;20216;-68
2022/02/12 11:40:20;;;;;;;9.27;4.20;;;9.40;87.00;;;;;;4424586;32;20186;-68
2022/02/12 11:42:59;;;;;;;7.40;3.40;;;9.20;92.10;;;;;;4425236;32;20210;-68
2022/02/12 11:45:34;;;;;;;6.60;3.50;;;9.00;91.80;;;;;;4423681;32;20178;-68
2022/02/12 11:48:12;;;;;;;5.93;3.07;;;8.50;87.50;;;;;;4426107;32;20215;-68
2022/02/12 11:50:47;;;;;;;6.57;3.67;;;8.40;91.30;;;;;;4424665;32;20385;-68
2022/02/12 11:53:36;;;;;;;5.33;3.20;;;8.50;90.30;;;;;;4424746;32;20407;-68
2022/02/12 11:56:18;;;;;;;7.10;3.30;;;8.70;87.80;;;;;;4424465;32;20224;-69
2022/02/12 11:58:48;;;;;;;5.43;3.30;;;9.30;86.70;;;;;;4424001;32;20178;-69
2022/02/12 12:01:35;;;;;;;5.13;3.20;;;9.30;80.30;;;;;;4424522;32;20220;-69
2022/02/12 12:04:14;;;;;;;6.97;3.70;;;9.40;82.20;;;;;;4425342;32;20230;-69
2022/02/12 12:06:59;;;;;;;6.83;3.67;;;9.70;83.80;;;;;;4425128;32;20178;-67
2022/02/12 12:09:27;;;;;;;5.50;3.30;;;10.10;78.80;;;;;;4424019;32;20198;-68
2022/02/12 12:12:19;;;;;;;5.30;3.00;;;9.80;76.50;;;;;;4423066;32;20170;-67
2022/02/12 12:14:51;;;;;;;6.00;3.43;;;10.00;75.40;;;;;;4429495;32;20456;-67
2022/02/12 12:17:23;;;;;;;6.83;3.10;;;9.90;75.00;;;;;;4431436;32;20179;-67
2022/02/12 12:19:53;;;;;;;6.47;3.03;;;10.10;77.10;;;;;;4423091;32;20178;-67
2022/02/12 12:22:21;;;;;;;5.60;2.83;;;10.60;77.50;;;;;;4425299;32;20254;-67
2022/02/12 12:24:50;;;;;;;4.37;2.53;;;11.10;70.00;;;;;;4434600;32;20456;-67
2022/02/12 12:27:18;;;;;;;5.50;2.53;;;11.20;65.10;;;;;;4423199;32;20220;-67
2022/02/12 12:32:31;;;;;;;4.47;2.10;;;11.70;61.90;;;;;;4424929;32;20190;-67
2022/02/12 12:35:05;;;;;;;5.70;2.10;;;11.50;63.70;;;;;;4424922;32;20171;-67
2022/02/12 12:37:50;;;;;;;2.90;1.70;;;11.40;61.90;;;;;;4434737;32;20157;-67
2022/02/12 12:40:29;;;;;;;4.27;2.00;;;11.10;62.90;;;;;;4427510;32;20171;-67
2022/02/12 12:43:02;;;;;;;4.10;1.90;;;11.20;62.70;;;;;;4433486;32;20504;-68
2022/02/12 12:45:37;;;;;;;3.13;1.50;;;11.40;64.00;;;;;;4423585;32;20210;-67
2022/02/12 12:48:04;;;;;;;4.17;1.60;;;11.80;64.30;;;;;;4422667;32;20256;-68
2022/02/12 12:50:37;;;;;;;4.57;1.77;;;12.10;59.40;;;;;;4426408;32;20213;-67
2022/02/12 12:53:07;;;;;;;3.63;1.93;;;12.00;56.30;;;;;;4438569;32;20189;-68
2022/02/12 12:55:35;;;;;;;4.07;1.83;;;12.00;57.20;;;;;;4424524;32;20183;-68
2022/02/12 12:58:12;;;;;;;3.57;1.70;;;12.40;56.80;;;;;;4422793;32;20178;-68
2022/02/12 13:00:40;;;;;;;2.80;1.50;;;12.20;54.60;;;;;;4422836;32;20170;-67
2022/02/12 13:03:07;;;;;;;3.97;1.77;;;11.80;53.90;;;;;;4423769;32;20224;-67
2022/02/12 13:05:34;;;;;;;2.97;1.60;;;11.40;54.80;;;;;;4423667;32;20227;-67
2022/02/12 13:08:07;;;;;;;4.27;1.90;;;11.30;56.50;;;;;;4424019;32;20213;-68
2022/02/12 13:10:36;;;;;;;4.90;1.90;;;11.00;57.30;;;;;;4425602;32;20205;-67
2022/02/12 13:13:20;;;;;;;4.93;1.90;;;10.90;58.00;;;;;;4433792;32;20220;-67